sensor_id;sensor_type;location;lat;lon;timestamp;P1;durP1;ratioP1;P2;durP2;ratioP2
15385;SDS011;7791;47.246;9.648;2022-08-19T00:01:24;129.43;;;24.17;;
15385;SDS011;7791;47.246;9.648;2022-08-19T00:03:55;271.50;;;29.17;;
15385;SDS011;7791;47.246;9.648;2022-08-19T00:06:23;144.70;;;24.23;;
15385;SDS011;7791;47.246;9.648;2022-08-19T00:08:49;67.73;;;20.20;;
15385;SDS011;7791;47.246;9.648;2022-08-19T00:11:15;66.93;;;20.80;;
15385;SDS011;7791;47.246;9.648;2022-08-19T00:13:41;114.93;;;22.87;;
15385;SDS011;7791;47.246;9.648;2022-08-19T00:16:08;75.43;;;21.07;;
15385;SDS011;7791;47.246;9.648;2022-08-19T00:18:37;118.87;;;23.97;;
15385;SDS011;7791;47.246;9.648;2022-08-19T00:21:12;100.20;;;22.70;;
15385;SDS011;7791;47.246;9.648;2022-08-19T00:23:40;67.53;;;22.50;;
15385;SDS011;7791;47.246;9.648;2022-08-19T00:26:08;77.17;;;23.37;;
15385;SDS011;7791;47.246;9.648;2022-08-19T00:28:34;65.17;;;24.27;;
15385;SDS011;7791;47.246;9.648;2022-08-19T00:31:01;59.63;;;21.90;;
15385;SDS011;7791;47.246;9.648;2022-08-19T00:33:28;90.53;;;25.07;;
15385;SDS011;7791;47.246;9.648;2022-08-19T00:35:55;166.20;;;25.73;;
15385;SDS011;7791;47.246;9.648;2022-08-19T00:38:21;45.70;;;18.33;;
15385;SDS011;7791;47.246;9.648;2022-08-19T00:40:56;43.23;;;17.87;;
15385;SDS011;7791;47.246;9.648;2022-08-19T00:43:23;51.37;;;20.00;;
15385;SDS011;7791;47.246;9.648;2022-08-19T00:45:50;60.87;;;22.00;;
15385;SDS011;7791;47.246;9.648;2022-08-19T00:48:17;46.13;;;18.70;;
15385;SDS011;7791;47.246;9.648;2022-08-19T00:50:46;44.47;;;18.60;;
15385;SDS011;7791;47.246;9.648;2022-08-19T00:53:15;36.07;;;16.17;;
15385;SDS011;7791;47.246;9.648;2022-08-19T00:55:45;48.97;;;18.90;;
15385;SDS011;7791;47.246;9.648;2022-08-19T00:58:14;122.93;;;22.33;;
15385;SDS011;7791;47.246;9.648;2022-08-19T01:00:43;75.17;;;21.57;;
15385;SDS011;7791;47.246;9.648;2022-08-19T01:03:10;73.87;;;22.17;;
15385;SDS011;7791;47.246;9.648;2022-08-19T01:05:38;79.83;;;23.20;;
15385;SDS011;7791;47.246;9.648;2022-08-19T01:08:07;70.93;;;23.07;;
15385;SDS011;7791;47.246;9.648;2022-08-19T01:10:35;67.30;;;21.63;;
15385;SDS011;7791;47.246;9.648;2022-08-19T01:13:08;51.33;;;21.03;;
15385;SDS011;7791;47.246;9.648;2022-08-19T01:15:38;267.70;;;31.40;;
15385;SDS011;7791;47.246;9.648;2022-08-19T01:18:10;74.53;;;21.87;;
15385;SDS011;7791;47.246;9.648;2022-08-19T01:20:39;65.50;;;22.03;;
15385;SDS011;7791;47.246;9.648;2022-08-19T01:23:12;72.80;;;23.07;;
15385;SDS011;7791;47.246;9.648;2022-08-19T01:25:41;61.23;;;22.83;;
15385;SDS011;7791;47.246;9.648;2022-08-19T01:28:14;53.20;;;21.53;;
15385;SDS011;7791;47.246;9.648;2022-08-19T01:30:43;51.43;;;21.37;;
15385;SDS011;7791;47.246;9.648;2022-08-19T01:33:13;51.27;;;22.10;;
15385;SDS011;7791;47.246;9.648;2022-08-19T01:35:40;54.83;;;21.53;;
15385;SDS011;7791;47.246;9.648;2022-08-19T01:38:07;54.23;;;21.43;;
15385;SDS011;7791;47.246;9.648;2022-08-19T01:40:43;58.37;;;21.63;;
15385;SDS011;7791;47.246;9.648;2022-08-19T01:43:10;44.30;;;19.83;;
15385;SDS011;7791;47.246;9.648;2022-08-19T01:45:36;38.73;;;17.60;;
15385;SDS011;7791;47.246;9.648;2022-08-19T01:48:04;38.87;;;17.80;;
15385;SDS011;7791;47.246;9.648;2022-08-19T01:50:31;35.83;;;17.13;;
15385;SDS011;7791;47.246;9.648;2022-08-19T01:53:13;41.37;;;17.47;;
15385;SDS011;7791;47.246;9.648;2022-08-19T01:55:41;34.00;;;15.63;;
15385;SDS011;7791;47.246;9.648;2022-08-19T01:58:08;27.67;;;14.17;;
15385;SDS011;7791;47.246;9.648;2022-08-19T02:00:41;26.00;;;13.23;;
15385;SDS011;7791;47.246;9.648;2022-08-19T02:03:07;28.60;;;13.67;;
15385;SDS011;7791;47.246;9.648;2022-08-19T02:05:34;29.40;;;13.67;;
15385;SDS011;7791;47.246;9.648;2022-08-19T02:08:01;26.57;;;14.00;;
15385;SDS011;7791;47.246;9.648;2022-08-19T02:10:28;32.20;;;14.70;;
15385;SDS011;7791;47.246;9.648;2022-08-19T02:12:55;24.40;;;13.13;;
15385;SDS011;7791;47.246;9.648;2022-08-19T02:15:20;21.53;;;12.10;;
15385;SDS011;7791;47.246;9.648;2022-08-19T02:17:48;22.43;;;13.10;;
15385;SDS011;7791;47.246;9.648;2022-08-19T02:20:15;23.47;;;13.07;;
15385;SDS011;7791;47.246;9.648;2022-08-19T02:22:43;22.77;;;12.67;;
15385;SDS011;7791;47.246;9.648;2022-08-19T02:25:09;23.90;;;13.27;;
15385;SDS011;7791;47.246;9.648;2022-08-19T02:27:37;28.77;;;13.70;;
15385;SDS011;7791;47.246;9.648;2022-08-19T02:30:04;28.03;;;14.07;;
15385;SDS011;7791;47.246;9.648;2022-08-19T02:32:33;28.50;;;12.50;;
15385;SDS011;7791;47.246;9.648;2022-08-19T02:35:00;28.97;;;13.63;;
15385;SDS011;7791;47.246;9.648;2022-08-19T02:37:34;35.43;;;13.83;;
15385;SDS011;7791;47.246;9.648;2022-08-19T02:40:00;29.03;;;12.97;;
15385;SDS011;7791;47.246;9.648;2022-08-19T02:42:27;24.20;;;14.00;;
15385;SDS011;7791;47.246;9.648;2022-08-19T02:44:56;27.03;;;13.03;;
15385;SDS011;7791;47.246;9.648;2022-08-19T02:47:22;31.63;;;14.23;;
15385;SDS011;7791;47.246;9.648;2022-08-19T02:49:48;25.50;;;12.80;;
15385;SDS011;7791;47.246;9.648;2022-08-19T02:52:15;25.70;;;13.33;;
15385;SDS011;7791;47.246;9.648;2022-08-19T02:57:43;22.83;;;11.13;;
15385;SDS011;7791;47.246;9.648;2022-08-19T03:00:12;20.57;;;10.60;;
15385;SDS011;7791;47.246;9.648;2022-08-19T03:02:38;21.57;;;11.43;;
15385;SDS011;7791;47.246;9.648;2022-08-19T03:05:05;26.10;;;13.10;;
15385;SDS011;7791;47.246;9.648;2022-08-19T03:07:34;20.60;;;11.60;;
15385;SDS011;7791;47.246;9.648;2022-08-19T03:10:00;28.67;;;13.73;;
15385;SDS011;7791;47.246;9.648;2022-08-19T03:12:30;30.37;;;14.43;;
15385;SDS011;7791;47.246;9.648;2022-08-19T03:14:56;28.13;;;14.93;;
15385;SDS011;7791;47.246;9.648;2022-08-19T03:17:23;25.87;;;13.33;;
15385;SDS011;7791;47.246;9.648;2022-08-19T03:19:50;25.63;;;12.87;;
15385;SDS011;7791;47.246;9.648;2022-08-19T03:22:17;26.47;;;12.60;;
15385;SDS011;7791;47.246;9.648;2022-08-19T03:24:45;27.00;;;13.83;;
15385;SDS011;7791;47.246;9.648;2022-08-19T03:27:11;21.93;;;11.80;;
15385;SDS011;7791;47.246;9.648;2022-08-19T03:29:40;22.73;;;12.07;;
15385;SDS011;7791;47.246;9.648;2022-08-19T03:32:06;23.07;;;12.33;;
15385;SDS011;7791;47.246;9.648;2022-08-19T03:34:36;20.80;;;12.23;;
15385;SDS011;7791;47.246;9.648;2022-08-19T03:37:07;25.67;;;13.33;;
15385;SDS011;7791;47.246;9.648;2022-08-19T03:39:40;20.23;;;11.87;;
15385;SDS011;7791;47.246;9.648;2022-08-19T03:42:08;21.97;;;11.47;;
15385;SDS011;7791;47.246;9.648;2022-08-19T03:44:39;20.93;;;11.63;;
15385;SDS011;7791;47.246;9.648;2022-08-19T03:47:11;19.23;;;11.53;;
15385;SDS011;7791;47.246;9.648;2022-08-19T03:49:47;15.77;;;10.73;;
15385;SDS011;7791;47.246;9.648;2022-08-19T03:52:16;20.57;;;11.10;;
15385;SDS011;7791;47.246;9.648;2022-08-19T03:54:42;19.77;;;11.93;;
15385;SDS011;7791;47.246;9.648;2022-08-19T03:57:09;22.83;;;12.87;;
15385;SDS011;7791;47.246;9.648;2022-08-19T03:59:37;21.53;;;11.77;;
15385;SDS011;7791;47.246;9.648;2022-08-19T04:02:06;22.30;;;11.77;;
15385;SDS011;7791;47.246;9.648;2022-08-19T04:04:35;18.47;;;10.93;;
15385;SDS011;7791;47.246;9.648;2022-08-19T04:07:04;15.40;;;9.60;;
15385;SDS011;7791;47.246;9.648;2022-08-19T04:09:32;14.47;;;9.83;;
15385;SDS011;7791;47.246;9.648;2022-08-19T04:11:58;14.60;;;9.50;;
15385;SDS011;7791;47.246;9.648;2022-08-19T04:14:27;14.57;;;9.93;;
15385;SDS011;7791;47.246;9.648;2022-08-19T04:16:56;14.47;;;8.80;;
15385;SDS011;7791;47.246;9.648;2022-08-19T04:19:24;14.03;;;8.83;;
15385;SDS011;7791;47.246;9.648;2022-08-19T04:21:52;12.13;;;8.13;;
15385;SDS011;7791;47.246;9.648;2022-08-19T04:24:21;15.77;;;9.13;;
15385;SDS011;7791;47.246;9.648;2022-08-19T04:26:49;16.03;;;9.33;;
15385;SDS011;7791;47.246;9.648;2022-08-19T04:29:17;17.13;;;11.27;;
15385;SDS011;7791;47.246;9.648;2022-08-19T04:31:47;19.80;;;11.10;;
15385;SDS011;7791;47.246;9.648;2022-08-19T04:34:17;16.83;;;10.93;;
15385;SDS011;7791;47.246;9.648;2022-08-19T04:36:45;17.37;;;10.40;;
15385;SDS011;7791;47.246;9.648;2022-08-19T04:39:13;17.47;;;10.53;;
15385;SDS011;7791;47.246;9.648;2022-08-19T04:41:47;16.23;;;10.03;;
15385;SDS011;7791;47.246;9.648;2022-08-19T04:44:13;17.97;;;10.83;;
15385;SDS011;7791;47.246;9.648;2022-08-19T04:46:39;18.43;;;10.57;;
15385;SDS011;7791;47.246;9.648;2022-08-19T04:49:06;19.73;;;10.57;;
15385;SDS011;7791;47.246;9.648;2022-08-19T04:51:35;16.00;;;10.10;;
15385;SDS011;7791;47.246;9.648;2022-08-19T04:54:07;16.23;;;9.27;;
15385;SDS011;7791;47.246;9.648;2022-08-19T04:56:43;15.83;;;10.30;;
15385;SDS011;7791;47.246;9.648;2022-08-19T04:59:11;18.90;;;10.63;;
15385;SDS011;7791;47.246;9.648;2022-08-19T05:01:37;19.70;;;10.77;;
15385;SDS011;7791;47.246;9.648;2022-08-19T05:04:05;17.00;;;10.93;;
15385;SDS011;7791;47.246;9.648;2022-08-19T05:06:32;16.03;;;9.97;;
15385;SDS011;7791;47.246;9.648;2022-08-19T05:08:59;17.63;;;10.00;;
15385;SDS011;7791;47.246;9.648;2022-08-19T05:11:26;17.17;;;10.63;;
15385;SDS011;7791;47.246;9.648;2022-08-19T05:13:58;17.67;;;10.03;;
15385;SDS011;7791;47.246;9.648;2022-08-19T05:16:30;13.83;;;9.03;;
15385;SDS011;7791;47.246;9.648;2022-08-19T05:19:00;15.93;;;9.30;;
15385;SDS011;7791;47.246;9.648;2022-08-19T05:21:28;14.37;;;9.43;;
15385;SDS011;7791;47.246;9.648;2022-08-19T05:23:56;12.67;;;9.30;;
15385;SDS011;7791;47.246;9.648;2022-08-19T05:26:24;12.37;;;8.87;;
15385;SDS011;7791;47.246;9.648;2022-08-19T05:28:52;13.13;;;8.93;;
15385;SDS011;7791;47.246;9.648;2022-08-19T05:31:25;13.10;;;9.03;;
15385;SDS011;7791;47.246;9.648;2022-08-19T05:34:07;13.83;;;9.33;;
15385;SDS011;7791;47.246;9.648;2022-08-19T05:36:37;14.40;;;9.53;;
15385;SDS011;7791;47.246;9.648;2022-08-19T05:39:11;15.90;;;10.23;;
15385;SDS011;7791;47.246;9.648;2022-08-19T05:41:40;16.43;;;10.20;;
15385;SDS011;7791;47.246;9.648;2022-08-19T05:44:12;17.03;;;9.70;;
15385;SDS011;7791;47.246;9.648;2022-08-19T05:46:51;16.40;;;10.60;;
15385;SDS011;7791;47.246;9.648;2022-08-19T05:49:19;12.10;;;9.17;;
15385;SDS011;7791;47.246;9.648;2022-08-19T05:51:48;13.33;;;9.30;;
15385;SDS011;7791;47.246;9.648;2022-08-19T05:54:15;14.63;;;9.50;;
15385;SDS011;7791;47.246;9.648;2022-08-19T05:56:42;13.07;;;9.37;;
15385;SDS011;7791;47.246;9.648;2022-08-19T05:59:12;12.13;;;8.73;;
15385;SDS011;7791;47.246;9.648;2022-08-19T06:01:40;12.27;;;8.63;;
15385;SDS011;7791;47.246;9.648;2022-08-19T06:04:10;13.93;;;8.23;;
15385;SDS011;7791;47.246;9.648;2022-08-19T06:06:37;11.47;;;7.93;;
15385;SDS011;7791;47.246;9.648;2022-08-19T06:09:05;11.13;;;8.20;;
15385;SDS011;7791;47.246;9.648;2022-08-19T06:11:34;10.60;;;8.33;;
15385;SDS011;7791;47.246;9.648;2022-08-19T06:14:04;11.50;;;8.77;;
15385;SDS011;7791;47.246;9.648;2022-08-19T06:16:39;12.40;;;8.40;;
15385;SDS011;7791;47.246;9.648;2022-08-19T06:19:08;11.93;;;8.83;;
15385;SDS011;7791;47.246;9.648;2022-08-19T06:21:39;11.83;;;9.00;;
15385;SDS011;7791;47.246;9.648;2022-08-19T06:24:07;14.07;;;9.67;;
15385;SDS011;7791;47.246;9.648;2022-08-19T06:26:39;11.50;;;9.03;;
15385;SDS011;7791;47.246;9.648;2022-08-19T06:29:07;12.93;;;8.77;;
15385;SDS011;7791;47.246;9.648;2022-08-19T06:31:35;13.47;;;9.27;;
15385;SDS011;7791;47.246;9.648;2022-08-19T06:34:03;12.43;;;8.60;;
15385;SDS011;7791;47.246;9.648;2022-08-19T06:36:38;10.50;;;8.93;;
15385;SDS011;7791;47.246;9.648;2022-08-19T06:39:07;13.73;;;10.40;;
15385;SDS011;7791;47.246;9.648;2022-08-19T06:41:51;14.07;;;9.73;;
15385;SDS011;7791;47.246;9.648;2022-08-19T06:47:22;12.53;;;9.30;;
15385;SDS011;7791;47.246;9.648;2022-08-19T06:49:48;14.63;;;9.50;;
15385;SDS011;7791;47.246;9.648;2022-08-19T06:52:15;14.33;;;9.40;;
15385;SDS011;7791;47.246;9.648;2022-08-19T06:54:41;14.47;;;10.40;;
15385;SDS011;7791;47.246;9.648;2022-08-19T06:57:07;14.43;;;9.93;;
15385;SDS011;7791;47.246;9.648;2022-08-19T06:59:33;13.97;;;9.93;;
15385;SDS011;7791;47.246;9.648;2022-08-19T07:02:00;15.30;;;10.53;;
15385;SDS011;7791;47.246;9.648;2022-08-19T07:04:29;13.90;;;10.17;;
15385;SDS011;7791;47.246;9.648;2022-08-19T07:06:57;13.47;;;10.30;;
15385;SDS011;7791;47.246;9.648;2022-08-19T07:09:25;13.47;;;9.80;;
15385;SDS011;7791;47.246;9.648;2022-08-19T07:11:52;17.27;;;11.37;;
15385;SDS011;7791;47.246;9.648;2022-08-19T07:17:04;12.93;;;10.57;;
15385;SDS011;7791;47.246;9.648;2022-08-19T07:19:31;17.10;;;12.03;;
15385;SDS011;7791;47.246;9.648;2022-08-19T07:21:57;17.10;;;11.67;;
15385;SDS011;7791;47.246;9.648;2022-08-19T07:24:24;16.03;;;12.70;;
15385;SDS011;7791;47.246;9.648;2022-08-19T07:26:52;16.53;;;12.70;;
15385;SDS011;7791;47.246;9.648;2022-08-19T07:29:28;15.17;;;12.33;;
15385;SDS011;7791;47.246;9.648;2022-08-19T07:31:56;19.20;;;12.80;;
15385;SDS011;7791;47.246;9.648;2022-08-19T07:34:22;18.70;;;13.87;;
15385;SDS011;7791;47.246;9.648;2022-08-19T07:36:49;18.00;;;14.40;;
15385;SDS011;7791;47.246;9.648;2022-08-19T07:39:16;16.43;;;13.03;;
15385;SDS011;7791;47.246;9.648;2022-08-19T07:41:45;18.43;;;13.70;;
15385;SDS011;7791;47.246;9.648;2022-08-19T07:44:13;17.37;;;13.67;;
15385;SDS011;7791;47.246;9.648;2022-08-19T07:46:40;19.30;;;13.33;;
15385;SDS011;7791;47.246;9.648;2022-08-19T07:49:08;18.27;;;12.90;;
15385;SDS011;7791;47.246;9.648;2022-08-19T07:51:33;18.70;;;13.43;;
15385;SDS011;7791;47.246;9.648;2022-08-19T07:53:59;20.53;;;14.27;;
15385;SDS011;7791;47.246;9.648;2022-08-19T07:56:25;17.53;;;13.17;;
15385;SDS011;7791;47.246;9.648;2022-08-19T08:01:40;19.40;;;13.57;;
15385;SDS011;7791;47.246;9.648;2022-08-19T08:04:06;17.63;;;13.33;;
15385;SDS011;7791;47.246;9.648;2022-08-19T08:06:32;19.40;;;13.23;;
15385;SDS011;7791;47.246;9.648;2022-08-19T08:08:58;15.73;;;12.53;;
15385;SDS011;7791;47.246;9.648;2022-08-19T08:11:24;17.00;;;11.83;;
15385;SDS011;7791;47.246;9.648;2022-08-19T08:13:50;15.53;;;11.90;;
15385;SDS011;7791;47.246;9.648;2022-08-19T08:16:17;16.23;;;12.60;;
15385;SDS011;7791;47.246;9.648;2022-08-19T08:18:43;15.87;;;11.80;;
15385;SDS011;7791;47.246;9.648;2022-08-19T08:21:09;18.67;;;12.63;;
15385;SDS011;7791;47.246;9.648;2022-08-19T08:23:35;17.37;;;12.63;;
15385;SDS011;7791;47.246;9.648;2022-08-19T08:26:00;15.90;;;11.93;;
15385;SDS011;7791;47.246;9.648;2022-08-19T08:28:26;18.20;;;13.13;;
15385;SDS011;7791;47.246;9.648;2022-08-19T08:30:52;18.27;;;13.10;;
15385;SDS011;7791;47.246;9.648;2022-08-19T08:33:20;17.87;;;12.93;;
15385;SDS011;7791;47.246;9.648;2022-08-19T08:35:47;17.63;;;13.23;;
15385;SDS011;7791;47.246;9.648;2022-08-19T08:38:13;17.13;;;12.60;;
15385;SDS011;7791;47.246;9.648;2022-08-19T08:40:43;16.20;;;12.07;;
15385;SDS011;7791;47.246;9.648;2022-08-19T08:43:11;15.80;;;11.73;;
15385;SDS011;7791;47.246;9.648;2022-08-19T08:48:49;17.93;;;11.80;;
15385;SDS011;7791;47.246;9.648;2022-08-19T08:51:20;14.33;;;11.13;;
15385;SDS011;7791;47.246;9.648;2022-08-19T08:53:49;15.13;;;11.53;;
15385;SDS011;7791;47.246;9.648;2022-08-19T08:56:17;16.40;;;11.67;;
15385;SDS011;7791;47.246;9.648;2022-08-19T08:58:46;16.80;;;11.70;;
15385;SDS011;7791;47.246;9.648;2022-08-19T09:01:16;15.80;;;12.07;;
15385;SDS011;7791;47.246;9.648;2022-08-19T09:03:42;16.40;;;11.47;;
15385;SDS011;7791;47.246;9.648;2022-08-19T09:06:12;14.60;;;10.33;;
15385;SDS011;7791;47.246;9.648;2022-08-19T09:08:45;16.50;;;10.60;;
15385;SDS011;7791;47.246;9.648;2022-08-19T09:11:19;14.43;;;9.00;;
15385;SDS011;7791;47.246;9.648;2022-08-19T09:13:59;12.00;;;8.93;;
15385;SDS011;7791;47.246;9.648;2022-08-19T09:19:46;12.10;;;9.03;;
15385;SDS011;7791;47.246;9.648;2022-08-19T09:22:16;11.93;;;9.27;;
15385;SDS011;7791;47.246;9.648;2022-08-19T09:24:42;12.70;;;9.20;;
15385;SDS011;7791;47.246;9.648;2022-08-19T09:27:08;12.83;;;9.67;;
15385;SDS011;7791;47.246;9.648;2022-08-19T09:29:33;13.77;;;9.53;;
15385;SDS011;7791;47.246;9.648;2022-08-19T09:32:17;15.40;;;9.40;;
15385;SDS011;7791;47.246;9.648;2022-08-19T09:34:43;12.20;;;8.20;;
15385;SDS011;7791;47.246;9.648;2022-08-19T09:37:09;10.60;;;6.57;;
15385;SDS011;7791;47.246;9.648;2022-08-19T09:39:36;12.30;;;8.67;;
15385;SDS011;7791;47.246;9.648;2022-08-19T09:42:02;12.50;;;8.57;;
15385;SDS011;7791;47.246;9.648;2022-08-19T09:44:29;14.13;;;9.00;;
15385;SDS011;7791;47.246;9.648;2022-08-19T09:46:55;17.77;;;10.60;;
15385;SDS011;7791;47.246;9.648;2022-08-19T09:49:21;20.73;;;12.53;;
15385;SDS011;7791;47.246;9.648;2022-08-19T09:51:49;23.97;;;13.20;;
15385;SDS011;7791;47.246;9.648;2022-08-19T09:54:15;19.50;;;11.27;;
15385;SDS011;7791;47.246;9.648;2022-08-19T09:56:42;17.50;;;11.67;;
15385;SDS011;7791;47.246;9.648;2022-08-19T09:59:08;15.10;;;10.27;;
15385;SDS011;7791;47.246;9.648;2022-08-19T10:01:34;14.30;;;10.20;;
15385;SDS011;7791;47.246;9.648;2022-08-19T10:04:00;15.50;;;10.77;;
15385;SDS011;7791;47.246;9.648;2022-08-19T10:06:26;18.30;;;11.23;;
15385;SDS011;7791;47.246;9.648;2022-08-19T10:08:54;17.27;;;11.03;;
15385;SDS011;7791;47.246;9.648;2022-08-19T10:11:20;18.80;;;11.47;;
15385;SDS011;7791;47.246;9.648;2022-08-19T10:13:47;16.07;;;10.77;;
15385;SDS011;7791;47.246;9.648;2022-08-19T10:16:13;14.47;;;10.33;;
15385;SDS011;7791;47.246;9.648;2022-08-19T10:18:41;17.03;;;10.80;;
15385;SDS011;7791;47.246;9.648;2022-08-19T10:21:08;17.60;;;11.33;;
15385;SDS011;7791;47.246;9.648;2022-08-19T10:23:35;17.03;;;11.00;;
15385;SDS011;7791;47.246;9.648;2022-08-19T10:26:02;17.00;;;10.17;;
15385;SDS011;7791;47.246;9.648;2022-08-19T10:28:28;14.97;;;9.70;;
15385;SDS011;7791;47.246;9.648;2022-08-19T10:31:04;12.50;;;8.97;;
15385;SDS011;7791;47.246;9.648;2022-08-19T10:33:30;12.83;;;9.13;;
15385;SDS011;7791;47.246;9.648;2022-08-19T10:35:58;13.60;;;9.50;;
15385;SDS011;7791;47.246;9.648;2022-08-19T10:38:24;14.67;;;9.73;;
15385;SDS011;7791;47.246;9.648;2022-08-19T10:40:50;12.47;;;9.47;;
15385;SDS011;7791;47.246;9.648;2022-08-19T10:43:16;15.20;;;10.13;;
15385;SDS011;7791;47.246;9.648;2022-08-19T10:45:42;13.17;;;9.33;;
15385;SDS011;7791;47.246;9.648;2022-08-19T10:48:09;15.33;;;9.37;;
15385;SDS011;7791;47.246;9.648;2022-08-19T10:50:36;18.80;;;9.50;;
15385;SDS011;7791;47.246;9.648;2022-08-19T10:53:03;14.03;;;9.53;;
15385;SDS011;7791;47.246;9.648;2022-08-19T10:55:30;11.93;;;8.63;;
15385;SDS011;7791;47.246;9.648;2022-08-19T10:57:55;18.30;;;9.33;;
15385;SDS011;7791;47.246;9.648;2022-08-19T11:00:22;21.13;;;10.07;;
15385;SDS011;7791;47.246;9.648;2022-08-19T11:02:48;31.87;;;11.67;;
15385;SDS011;7791;47.246;9.648;2022-08-19T11:05:15;18.90;;;9.17;;
15385;SDS011;7791;47.246;9.648;2022-08-19T11:07:42;12.90;;;6.40;;
15385;SDS011;7791;47.246;9.648;2022-08-19T11:10:09;9.50;;;6.20;;
15385;SDS011;7791;47.246;9.648;2022-08-19T11:12:36;13.80;;;7.37;;
15385;SDS011;7791;47.246;9.648;2022-08-19T11:15:02;5.97;;;4.27;;
15385;SDS011;7791;47.246;9.648;2022-08-19T11:17:28;8.53;;;4.60;;
15385;SDS011;7791;47.246;9.648;2022-08-19T11:19:54;6.70;;;4.00;;
15385;SDS011;7791;47.246;9.648;2022-08-19T11:22:21;5.40;;;3.77;;
15385;SDS011;7791;47.246;9.648;2022-08-19T11:24:47;7.07;;;4.60;;
15385;SDS011;7791;47.246;9.648;2022-08-19T11:27:12;6.47;;;4.20;;
15385;SDS011;7791;47.246;9.648;2022-08-19T11:29:38;6.47;;;3.73;;
15385;SDS011;7791;47.246;9.648;2022-08-19T11:32:16;8.43;;;4.40;;
15385;SDS011;7791;47.246;9.648;2022-08-19T11:34:42;5.17;;;4.07;;
15385;SDS011;7791;47.246;9.648;2022-08-19T11:37:08;6.57;;;4.70;;
15385;SDS011;7791;47.246;9.648;2022-08-19T11:39:35;5.50;;;4.13;;
15385;SDS011;7791;47.246;9.648;2022-08-19T11:42:02;5.57;;;4.27;;
15385;SDS011;7791;47.246;9.648;2022-08-19T11:44:30;5.93;;;4.07;;
15385;SDS011;7791;47.246;9.648;2022-08-19T11:46:55;7.00;;;4.30;;
15385;SDS011;7791;47.246;9.648;2022-08-19T11:49:21;5.73;;;4.23;;
15385;SDS011;7791;47.246;9.648;2022-08-19T11:51:47;5.03;;;3.80;;
15385;SDS011;7791;47.246;9.648;2022-08-19T11:54:14;6.37;;;4.00;;
15385;SDS011;7791;47.246;9.648;2022-08-19T11:56:42;5.20;;;3.90;;
15385;SDS011;7791;47.246;9.648;2022-08-19T11:59:09;4.50;;;3.57;;
15385;SDS011;7791;47.246;9.648;2022-08-19T12:01:35;5.20;;;3.43;;
15385;SDS011;7791;47.246;9.648;2022-08-19T12:04:01;5.37;;;3.43;;
15385;SDS011;7791;47.246;9.648;2022-08-19T12:06:29;4.63;;;3.33;;
15385;SDS011;7791;47.246;9.648;2022-08-19T12:08:56;5.73;;;3.37;;
15385;SDS011;7791;47.246;9.648;2022-08-19T12:11:23;4.83;;;3.00;;
15385;SDS011;7791;47.246;9.648;2022-08-19T12:13:51;3.50;;;2.67;;
15385;SDS011;7791;47.246;9.648;2022-08-19T12:16:17;7.20;;;2.93;;
15385;SDS011;7791;47.246;9.648;2022-08-19T12:18:44;4.60;;;2.87;;
15385;SDS011;7791;47.246;9.648;2022-08-19T12:21:11;4.70;;;2.77;;
15385;SDS011;7791;47.246;9.648;2022-08-19T12:23:37;4.67;;;3.17;;
15385;SDS011;7791;47.246;9.648;2022-08-19T12:26:03;6.30;;;3.03;;
15385;SDS011;7791;47.246;9.648;2022-08-19T12:28:30;10.10;;;5.17;;
15385;SDS011;7791;47.246;9.648;2022-08-19T12:30:57;7.33;;;3.93;;
15385;SDS011;7791;47.246;9.648;2022-08-19T12:33:23;7.43;;;4.00;;
15385;SDS011;7791;47.246;9.648;2022-08-19T12:35:49;6.80;;;3.83;;
15385;SDS011;7791;47.246;9.648;2022-08-19T12:38:15;6.80;;;2.67;;
15385;SDS011;7791;47.246;9.648;2022-08-19T12:40:41;5.57;;;2.50;;
15385;SDS011;7791;47.246;9.648;2022-08-19T12:43:10;5.50;;;2.30;;
15385;SDS011;7791;47.246;9.648;2022-08-19T12:45:36;3.20;;;1.93;;
15385;SDS011;7791;47.246;9.648;2022-08-19T12:48:03;2.77;;;2.03;;
15385;SDS011;7791;47.246;9.648;2022-08-19T12:50:29;3.47;;;2.30;;
15385;SDS011;7791;47.246;9.648;2022-08-19T12:52:55;4.13;;;2.10;;
15385;SDS011;7791;47.246;9.648;2022-08-19T12:55:23;3.03;;;2.00;;
15385;SDS011;7791;47.246;9.648;2022-08-19T12:57:48;3.10;;;2.10;;
15385;SDS011;7791;47.246;9.648;2022-08-19T13:00:16;2.50;;;2.00;;
15385;SDS011;7791;47.246;9.648;2022-08-19T13:02:44;3.40;;;1.90;;
15385;SDS011;7791;47.246;9.648;2022-08-19T13:05:13;3.80;;;2.10;;
15385;SDS011;7791;47.246;9.648;2022-08-19T13:07:41;2.67;;;1.87;;
15385;SDS011;7791;47.246;9.648;2022-08-19T13:10:08;2.50;;;1.90;;
15385;SDS011;7791;47.246;9.648;2022-08-19T13:12:35;6.70;;;2.20;;
15385;SDS011;7791;47.246;9.648;2022-08-19T13:15:01;1.90;;;1.60;;
15385;SDS011;7791;47.246;9.648;2022-08-19T13:17:27;2.23;;;1.90;;
15385;SDS011;7791;47.246;9.648;2022-08-19T13:19:55;3.13;;;1.70;;
15385;SDS011;7791;47.246;9.648;2022-08-19T13:22:22;4.57;;;2.30;;
15385;SDS011;7791;47.246;9.648;2022-08-19T13:24:48;2.57;;;1.87;;
15385;SDS011;7791;47.246;9.648;2022-08-19T13:27:14;2.47;;;1.50;;
15385;SDS011;7791;47.246;9.648;2022-08-19T13:29:40;2.40;;;1.47;;
15385;SDS011;7791;47.246;9.648;2022-08-19T13:32:06;1.40;;;1.30;;
15385;SDS011;7791;47.246;9.648;2022-08-19T13:34:32;2.77;;;1.10;;
15385;SDS011;7791;47.246;9.648;2022-08-19T13:36:59;3.50;;;1.53;;
15385;SDS011;7791;47.246;9.648;2022-08-19T13:39:26;3.43;;;1.50;;
15385;SDS011;7791;47.246;9.648;2022-08-19T13:41:52;1.40;;;1.20;;
15385;SDS011;7791;47.246;9.648;2022-08-19T13:44:18;2.60;;;1.70;;
15385;SDS011;7791;47.246;9.648;2022-08-19T13:46:44;2.97;;;1.90;;
15385;SDS011;7791;47.246;9.648;2022-08-19T13:49:10;3.00;;;1.90;;
15385;SDS011;7791;47.246;9.648;2022-08-19T13:51:36;1.80;;;1.47;;
15385;SDS011;7791;47.246;9.648;2022-08-19T13:54:02;2.33;;;1.77;;
15385;SDS011;7791;47.246;9.648;2022-08-19T13:56:30;2.43;;;1.90;;
15385;SDS011;7791;47.246;9.648;2022-08-19T13:58:55;3.33;;;1.90;;
15385;SDS011;7791;47.246;9.648;2022-08-19T14:01:21;4.03;;;1.93;;
15385;SDS011;7791;47.246;9.648;2022-08-19T14:03:47;2.70;;;1.77;;
15385;SDS011;7791;47.246;9.648;2022-08-19T14:06:13;10.13;;;3.50;;
15385;SDS011;7791;47.246;9.648;2022-08-19T14:08:39;21.40;;;10.70;;
15385;SDS011;7791;47.246;9.648;2022-08-19T14:11:05;8.33;;;4.27;;
15385;SDS011;7791;47.246;9.648;2022-08-19T14:13:32;15.53;;;7.80;;
15385;SDS011;7791;47.246;9.648;2022-08-19T14:15:58;5.93;;;3.70;;
15385;SDS011;7791;47.246;9.648;2022-08-19T14:18:24;3.63;;;2.60;;
15385;SDS011;7791;47.246;9.648;2022-08-19T14:20:50;2.60;;;1.67;;
15385;SDS011;7791;47.246;9.648;2022-08-19T14:23:17;8.80;;;3.30;;
15385;SDS011;7791;47.246;9.648;2022-08-19T14:25:43;5.77;;;2.70;;
15385;SDS011;7791;47.246;9.648;2022-08-19T14:28:09;3.77;;;2.43;;
15385;SDS011;7791;47.246;9.648;2022-08-19T14:30:36;3.47;;;1.80;;
15385;SDS011;7791;47.246;9.648;2022-08-19T14:33:03;3.20;;;1.70;;
15385;SDS011;7791;47.246;9.648;2022-08-19T14:35:30;2.70;;;1.80;;
15385;SDS011;7791;47.246;9.648;2022-08-19T14:37:57;3.93;;;2.07;;
15385;SDS011;7791;47.246;9.648;2022-08-19T14:40:24;3.80;;;1.90;;
15385;SDS011;7791;47.246;9.648;2022-08-19T14:42:52;3.10;;;2.20;;
15385;SDS011;7791;47.246;9.648;2022-08-19T14:45:18;3.90;;;2.77;;
15385;SDS011;7791;47.246;9.648;2022-08-19T14:47:45;5.27;;;3.43;;
15385;SDS011;7791;47.246;9.648;2022-08-19T14:50:11;4.17;;;3.03;;
15385;SDS011;7791;47.246;9.648;2022-08-19T14:52:37;5.40;;;3.47;;
15385;SDS011;7791;47.246;9.648;2022-08-19T14:55:03;6.00;;;3.77;;
15385;SDS011;7791;47.246;9.648;2022-08-19T14:57:29;5.33;;;3.40;;
15385;SDS011;7791;47.246;9.648;2022-08-19T14:59:55;4.27;;;3.10;;
15385;SDS011;7791;47.246;9.648;2022-08-19T15:02:21;4.50;;;3.03;;
15385;SDS011;7791;47.246;9.648;2022-08-19T15:04:48;4.30;;;2.83;;